createdAt,value
2023-03-27T00:02:19.340Z,8.76
2023-03-27T00:04:46.784Z,8.76
2023-03-27T00:07:14.067Z,8.79
2023-03-27T00:09:44.374Z,8.69
2023-03-27T00:12:11.602Z,8.88
2023-03-27T00:14:38.951Z,8.94
2023-03-27T00:17:06.351Z,9.04
2023-03-27T00:19:34.216Z,9.21
2023-03-27T00:22:01.517Z,9.32
2023-03-27T00:24:28.835Z,9.42
2023-03-27T00:26:56.644Z,9.49
2023-03-27T00:29:24.244Z,9.54
2023-03-27T00:31:51.549Z,9.63
2023-03-27T00:34:18.969Z,9.66
2023-03-27T00:36:51.343Z,9.70
2023-03-27T00:39:19.523Z,9.77
2023-03-27T00:41:47.538Z,9.82
2023-03-27T00:44:22.222Z,9.83
2023-03-27T00:46:50.117Z,9.84
2023-03-27T00:49:17.569Z,9.85
2023-03-27T00:51:46.972Z,9.86
2023-03-27T00:54:22.260Z,9.88
2023-03-27T00:56:50.165Z,9.89
2023-03-27T00:59:21.730Z,9.96
2023-03-27T01:01:49.520Z,10.01
2023-03-27T01:04:21.727Z,9.99
2023-03-27T01:06:52.244Z,10.01
2023-03-27T01:09:21.310Z,9.91
2023-03-27T01:11:49.110Z,9.91
2023-03-27T01:14:25.230Z,10.02
2023-03-27T01:17:11.115Z,9.97
2023-03-27T01:19:52.447Z,9.90
2023-03-27T01:22:20.070Z,9.90
2023-03-27T01:25:09.404Z,9.85
2023-03-27T01:27:48.776Z,9.47
2023-03-27T01:30:16.126Z,9.09
2023-03-27T01:33:01.921Z,8.92
2023-03-27T01:35:52.199Z,9.14
2023-03-27T01:38:38.573Z,9.55
2023-03-27T01:41:12.455Z,9.70
2023-03-27T01:43:58.767Z,9.77
2023-03-27T01:46:35.714Z,9.65
2023-03-27T01:49:10.826Z,9.89
2023-03-27T01:51:39.968Z,9.94
2023-03-27T01:54:18.533Z,9.94
2023-03-27T01:56:54.146Z,9.95
2023-03-27T01:59:25.100Z,10.08
2023-03-27T02:01:59.475Z,10.20
2023-03-27T02:04:31.074Z,10.25
2023-03-27T02:07:00.834Z,10.33
2023-03-27T02:09:33.997Z,10.44
2023-03-27T02:12:12.155Z,10.45
2023-03-27T02:14:45.332Z,10.43
2023-03-27T02:17:14.289Z,10.41
2023-03-27T02:19:47.677Z,10.37
2023-03-27T02:22:15.906Z,10.36
2023-03-27T02:24:46.924Z,10.37
2023-03-27T02:27:38.451Z,10.25
2023-03-27T02:30:20.491Z,10.36
2023-03-27T02:32:47.957Z,10.45
2023-03-27T02:35:23.735Z,10.43
2023-03-27T02:37:58.874Z,10.44
2023-03-27T02:40:50.695Z,10.43
2023-03-27T02:43:42.447Z,10.39
2023-03-27T02:46:21.386Z,10.47
2023-03-27T02:48:54.365Z,10.50
2023-03-27T02:51:25.506Z,10.55
2023-03-27T02:53:59.961Z,10.59
2023-03-27T02:56:32.416Z,10.62
2023-03-27T02:59:04.172Z,10.69
2023-03-27T03:01:36.666Z,10.70
2023-03-27T03:04:28.646Z,10.79
2023-03-27T03:07:14.591Z,10.88
2023-03-27T03:09:42.917Z,10.93
2023-03-27T03:12:10.410Z,10.96
2023-03-27T03:14:45.748Z,11.04
2023-03-27T03:17:13.968Z,11.13
2023-03-27T03:19:41.504Z,11.24
2023-03-27T03:22:09.000Z,11.32
2023-03-27T03:24:37.755Z,11.37
2023-03-27T03:27:05.973Z,11.43
2023-03-27T03:29:44.549Z,11.55
2023-03-27T03:32:17.328Z,11.63
2023-03-27T03:34:48.674Z,11.73
2023-03-27T03:37:16.424Z,11.83
2023-03-27T03:39:43.737Z,11.93
2023-03-27T03:42:22.781Z,11.96
2023-03-27T03:44:53.060Z,12.05
2023-03-27T03:47:22.466Z,12.14
2023-03-27T03:49:50.628Z,12.23
2023-03-27T03:52:18.050Z,12.28
2023-03-27T03:54:46.826Z,12.34
2023-03-27T03:57:14.592Z,12.32
2023-03-27T03:59:43.998Z,12.40
2023-03-27T04:02:38.612Z,12.49
2023-03-27T04:05:10.769Z,12.54
2023-03-27T04:07:40.426Z,12.63
2023-03-27T04:10:38.128Z,12.64
2023-03-27T04:13:10.939Z,12.71
2023-03-27T04:15:47.770Z,12.77
2023-03-27T04:18:19.847Z,12.79
2023-03-27T04:20:50.942Z,12.86
2023-03-27T04:23:20.275Z,12.90
2023-03-27T04:25:48.484Z,12.97
2023-03-27T04:28:22.963Z,13.03
2023-03-27T04:31:06.632Z,13.05
2023-03-27T04:33:40.497Z,13.12
2023-03-27T04:36:42.960Z,13.19
2023-03-27T04:39:16.805Z,13.24
2023-03-27T04:41:49.606Z,13.33
2023-03-27T04:44:20.288Z,13.45
2023-03-27T04:46:51.119Z,13.64
2023-03-27T04:49:19.443Z,13.87
2023-03-27T04:51:58.078Z,14.13
2023-03-27T04:54:32.094Z,14.39
2023-03-27T04:57:02.332Z,14.65
2023-03-27T04:59:33.335Z,14.88
2023-03-27T05:02:21.668Z,15.11
2023-03-27T05:04:58.851Z,15.29
2023-03-27T05:07:32.173Z,15.46
2023-03-27T05:10:02.361Z,15.65
2023-03-27T05:12:30.398Z,15.83
2023-03-27T05:15:04.463Z,16.04
2023-03-27T05:17:42.468Z,16.22
2023-03-27T05:20:15.433Z,16.41
2023-03-27T05:22:44.118Z,16.63
2023-03-27T05:25:32.759Z,16.83
2023-03-27T05:28:03.364Z,16.98
2023-03-27T05:30:33.792Z,17.11
2023-03-27T05:33:16.808Z,17.24
2023-03-27T05:35:48.511Z,17.35
2023-03-27T05:38:17.247Z,17.47
2023-03-27T05:41:07.564Z,17.61
2023-03-27T05:43:40.031Z,17.75
2023-03-27T05:46:07.928Z,17.88
2023-03-27T05:48:36.851Z,17.95
2023-03-27T05:51:05.062Z,18.02
2023-03-27T05:53:33.746Z,18.12
2023-03-27T05:56:15.611Z,18.29
2023-03-27T05:58:53.815Z,18.51
2023-03-27T06:01:23.855Z,18.72
2023-03-27T06:03:56.381Z,18.96
2023-03-27T06:06:33.110Z,19.22
2023-03-27T06:09:00.567Z,19.47
2023-03-27T06:11:28.777Z,19.69
2023-03-27T06:13:58.739Z,19.90
2023-03-27T06:16:44.957Z,20.10
2023-03-27T06:19:50.524Z,20.24
2023-03-27T06:22:17.915Z,20.32
2023-03-27T06:24:48.021Z,20.40
2023-03-27T06:27:20.431Z,20.41
2023-03-27T06:29:48.633Z,20.52
2023-03-27T06:32:17.300Z,20.59
2023-03-27T06:34:50.539Z,20.57
2023-03-27T06:37:37.317Z,20.45
2023-03-27T06:40:09.774Z,20.44
2023-03-27T06:42:40.433Z,20.41
2023-03-27T06:45:31.750Z,20.42
2023-03-27T06:48:21.938Z,20.46
2023-03-27T06:50:53.493Z,20.50
2023-03-27T06:53:27.263Z,20.61
2023-03-27T06:55:56.380Z,20.68
2023-03-27T06:58:25.596Z,20.73
2023-03-27T07:00:53.467Z,20.79
2023-03-27T07:03:21.723Z,20.81
2023-03-27T07:06:25.485Z,20.96
2023-03-27T07:09:02.315Z,21.08
2023-03-27T07:11:32.109Z,21.14
2023-03-27T07:14:06.943Z,21.24
2023-03-27T07:16:34.308Z,21.40
2023-03-27T07:19:02.544Z,21.54
2023-03-27T07:21:32.746Z,21.69
2023-03-27T07:24:00.599Z,21.87
2023-03-27T07:26:33.059Z,22.04
2023-03-27T07:29:03.434Z,22.21
2023-03-27T07:32:09.536Z,22.37
2023-03-27T07:34:48.229Z,22.56
2023-03-27T07:37:33.966Z,22.72
2023-03-27T07:40:29.540Z,22.89
2023-03-27T07:43:36.804Z,22.97
2023-03-27T07:46:06.658Z,23.07
2023-03-27T07:48:36.114Z,23.07
2023-03-27T07:51:13.365Z,23.15
2023-03-27T07:53:41.796Z,23.19
2023-03-27T07:56:15.544Z,23.31
2023-03-27T07:58:46.601Z,23.25
2023-03-27T08:01:19.185Z,23.36
2023-03-27T08:03:48.966Z,23.38
2023-03-27T08:06:18.345Z,23.39
2023-03-27T08:08:46.214Z,22.95
2023-03-27T08:11:27.235Z,23.13
2023-03-27T08:13:58.800Z,23.19
2023-03-27T08:16:30.064Z,23.15
2023-03-27T08:19:01.450Z,23.21
2023-03-27T08:21:33.558Z,23.21
2023-03-27T08:24:02.932Z,23.22
2023-03-27T08:26:36.544Z,23.17
2023-03-27T08:29:08.599Z,23.14
2023-03-27T08:31:36.940Z,23.15
2023-03-27T08:34:06.007Z,23.04
2023-03-27T08:36:41.797Z,22.83
2023-03-27T08:39:09.408Z,22.88
2023-03-27T08:41:50.081Z,22.76
2023-03-27T08:44:23.708Z,22.85
2023-03-27T08:46:56.678Z,22.83
2023-03-27T08:49:28.901Z,22.73
2023-03-27T08:52:24.410Z,22.71
2023-03-27T08:54:58.725Z,22.39
2023-03-27T08:57:39.283Z,22.48
2023-03-27T09:00:35.656Z,22.39
2023-03-27T09:03:22.639Z,22.20
2023-03-27T09:06:04.060Z,22.11
2023-03-27T09:08:44.070Z,22.04
2023-03-27T09:11:24.211Z,21.94
2023-03-27T09:13:59.071Z,21.89
2023-03-27T09:16:32.485Z,21.84
2023-03-27T09:21:41.044Z,21.54
2023-03-27T09:24:16.821Z,21.34
2023-03-27T09:27:17.976Z,20.70
2023-03-27T09:30:05.666Z,20.73
2023-03-27T09:32:54.803Z,20.34
2023-03-27T09:35:22.239Z,20.26
2023-03-27T09:37:58.769Z,19.96
2023-03-27T09:40:31.566Z,20.29
2023-03-27T09:43:10.062Z,20.17
2023-03-27T09:45:40.947Z,19.68
2023-03-27T09:48:29.126Z,19.30
2023-03-27T09:50:57.308Z,19.42
2023-03-27T09:53:33.234Z,19.03
2023-03-27T09:56:16.541Z,19.22
2023-03-27T09:58:49.440Z,19.56
2023-03-27T10:01:28.258Z,19.82
2023-03-27T10:04:01.421Z,19.57
2023-03-27T10:06:38.928Z,19.67
2023-03-27T10:09:24.713Z,19.82
2023-03-27T10:12:02.133Z,19.75
2023-03-27T10:14:31.163Z,19.82
2023-03-27T10:16:58.637Z,19.81
2023-03-27T10:19:28.773Z,19.97
2023-03-27T10:22:01.374Z,19.58
2023-03-27T10:24:33.948Z,19.33
2023-03-27T10:27:04.737Z,19.57
2023-03-27T10:29:35.201Z,19.43
2023-03-27T10:32:04.444Z,19.21
2023-03-27T10:34:58.289Z,19.63
2023-03-27T10:37:49.744Z,19.79
2023-03-27T10:40:38.072Z,19.95
2023-03-27T10:43:25.280Z,19.96
2023-03-27T10:45:56.627Z,20.12
2023-03-27T10:48:48.015Z,20.07
2023-03-27T10:51:20.504Z,20.18
2023-03-27T10:54:06.405Z,20.24
2023-03-27T10:56:51.901Z,20.30
2023-03-27T10:59:38.288Z,20.23
2023-03-27T11:02:14.183Z,20.11
2023-03-27T11:04:51.727Z,20.20
2023-03-27T11:07:27.244Z,20.17
2023-03-27T11:10:02.465Z,20.23
2023-03-27T11:12:34.437Z,20.31
2023-03-27T11:15:15.755Z,20.28
2023-03-27T11:17:53.327Z,20.31
2023-03-27T11:20:46.473Z,20.36
2023-03-27T11:23:23.353Z,20.28
2023-03-27T11:26:13.309Z,20.32
2023-03-27T11:28:57.036Z,20.35
2023-03-27T11:31:46.796Z,20.35
2023-03-27T11:34:29.705Z,20.40
2023-03-27T11:37:21.001Z,20.46
2023-03-27T11:39:53.477Z,20.37
2023-03-27T11:42:24.528Z,20.27
2023-03-27T11:44:52.249Z,20.39
2023-03-27T11:47:53.508Z,20.35
2023-03-27T11:50:24.554Z,20.43
2023-03-27T11:52:55.815Z,20.40
2023-03-27T11:56:03.242Z,20.46
2023-03-27T11:58:41.153Z,20.48
2023-03-27T12:01:13.823Z,20.34
2023-03-27T12:03:55.054Z,20.43
2023-03-27T12:06:45.449Z,20.47
2023-03-27T12:09:32.254Z,20.52
2023-03-27T12:12:37.785Z,20.52
2023-03-27T12:15:26.310Z,20.54
2023-03-27T12:18:03.640Z,20.49
2023-03-27T12:20:54.686Z,20.46
2023-03-27T12:23:29.121Z,20.32
2023-03-27T12:26:34.518Z,20.29
2023-03-27T12:29:27.336Z,20.03
2023-03-27T12:32:08.232Z,20.28
2023-03-27T12:34:50.530Z,20.22
2023-03-27T12:37:20.212Z,20.13
2023-03-27T12:39:57.407Z,20.07
2023-03-27T12:42:44.015Z,20.12
2023-03-27T12:45:16.164Z,20.06
2023-03-27T12:48:05.276Z,20.14
2023-03-27T12:50:40.512Z,20.11
2023-03-27T12:53:19.066Z,20.02
2023-03-27T12:55:49.033Z,20.03
2023-03-27T12:58:33.221Z,19.94
2023-03-27T13:01:24.684Z,19.80
2023-03-27T13:04:16.934Z,19.87
2023-03-27T13:06:47.287Z,19.83
2023-03-27T13:09:17.075Z,19.83
2023-03-27T13:11:55.516Z,19.77
2023-03-27T13:14:25.024Z,19.79
2023-03-27T13:16:57.003Z,19.79
2023-03-27T13:19:51.351Z,19.70
2023-03-27T13:22:44.450Z,19.46
2023-03-27T13:25:25.558Z,19.45
2023-03-27T13:28:08.719Z,19.47
2023-03-27T13:30:52.700Z,19.00
2023-03-27T13:34:07.774Z,18.83
2023-03-27T13:36:35.705Z,18.23
2023-03-27T13:39:06.973Z,17.70
2023-03-27T13:41:49.623Z,17.67
2023-03-27T13:44:26.505Z,17.65
2023-03-27T13:47:12.614Z,18.04
2023-03-27T13:50:01.993Z,17.43
2023-03-27T13:52:48.226Z,17.72
2023-03-27T13:55:28.256Z,17.87
2023-03-27T13:58:13.715Z,17.96
2023-03-27T14:01:01.066Z,17.81
2023-03-27T14:03:32.186Z,17.24
2023-03-27T14:06:42.201Z,17.29
2023-03-27T14:09:12.163Z,17.87
2023-03-27T14:12:08.351Z,17.74
2023-03-27T14:15:16.765Z,17.71
2023-03-27T14:18:04.727Z,17.76
2023-03-27T14:20:34.488Z,17.80
2023-03-27T14:23:05.966Z,17.77
2023-03-27T14:26:03.773Z,17.90
2023-03-27T14:28:47.069Z,16.96
2023-03-27T14:31:19.454Z,16.81
2023-03-27T14:34:06.723Z,16.78
2023-03-27T14:36:42.575Z,16.54
2023-03-27T14:39:22.839Z,16.77
2023-03-27T14:41:57.501Z,16.88
2023-03-27T14:44:27.759Z,16.63
2023-03-27T14:47:03.939Z,16.14
2023-03-27T14:49:39.220Z,16.15
2023-03-27T14:52:32.420Z,16.24
2023-03-27T14:55:27.588Z,16.21
2023-03-27T14:58:18.816Z,15.95
2023-03-27T15:00:53.216Z,15.64
2023-03-27T15:03:24.303Z,15.32
2023-03-27T15:06:07.567Z,15.36
2023-03-27T15:08:46.866Z,15.73
2023-03-27T15:11:21.797Z,15.38
2023-03-27T15:13:57.036Z,15.20
2023-03-27T15:16:32.651Z,15.39
2023-03-27T15:19:12.575Z,14.98
2023-03-27T15:21:53.494Z,14.78
2023-03-27T15:24:26.851Z,15.11
2023-03-27T15:26:55.749Z,14.97
2023-03-27T15:29:35.144Z,14.76
2023-03-27T15:32:09.051Z,14.68
2023-03-27T15:34:46.401Z,14.46
2023-03-27T15:37:23.553Z,14.49
2023-03-27T15:39:59.983Z,14.42
2023-03-27T15:42:35.276Z,14.49
2023-03-27T15:45:12.388Z,14.32
2023-03-27T15:48:07.075Z,14.54
2023-03-27T15:50:35.444Z,14.52
2023-03-27T15:53:03.525Z,14.38
2023-03-27T15:55:55.795Z,14.37
2023-03-27T15:58:31.258Z,14.25
2023-03-27T16:01:02.691Z,14.10
2023-03-27T16:03:46.487Z,14.52
2023-03-27T16:06:22.272Z,14.31
2023-03-27T16:08:49.791Z,14.35
2023-03-27T16:11:31.852Z,14.18
2023-03-27T16:13:59.484Z,14.49
2023-03-27T16:16:28.270Z,14.38
2023-03-27T16:18:58.724Z,14.04
2023-03-27T16:21:26.989Z,14.01
2023-03-27T16:23:54.404Z,14.08
2023-03-27T16:26:30.900Z,14.13
2023-03-27T16:29:00.160Z,14.18
2023-03-27T16:31:27.545Z,13.95
2023-03-27T16:33:54.936Z,14.11
2023-03-27T16:36:25.836Z,13.94
2023-03-27T16:38:53.310Z,14.01
2023-03-27T16:41:20.599Z,13.85
2023-03-27T16:43:49.156Z,13.80
2023-03-27T16:46:27.226Z,13.71
2023-03-27T16:48:57.104Z,13.75
2023-03-27T16:51:25.461Z,13.70
2023-03-27T16:53:53.190Z,13.94
2023-03-27T16:56:21.373Z,13.69
2023-03-27T16:58:48.651Z,13.98
2023-03-27T17:01:16.009Z,14.08
2023-03-27T17:03:46.944Z,14.05
2023-03-27T17:06:15.455Z,13.83
2023-03-27T17:08:42.813Z,13.66
2023-03-27T17:11:13.966Z,13.91
2023-03-27T17:13:43.557Z,13.80
2023-03-27T17:16:11.084Z,13.78
2023-03-27T17:18:38.439Z,13.71
2023-03-27T17:21:05.792Z,13.69
2023-03-27T17:23:33.180Z,13.23
2023-03-27T17:26:02.054Z,13.22
2023-03-27T17:28:31.047Z,13.22
2023-03-27T17:31:04.497Z,13.28
2023-03-27T17:33:33.018Z,13.60
2023-03-27T17:36:00.610Z,13.77
2023-03-27T17:38:28.247Z,13.99
2023-03-27T17:40:55.533Z,13.31
2023-03-27T17:43:23.092Z,13.07
2023-03-27T17:45:51.454Z,13.05
2023-03-27T17:48:19.069Z,12.70
2023-03-27T17:50:54.733Z,12.89
2023-03-27T17:53:31.811Z,13.18
2023-03-27T17:56:02.716Z,13.20
2023-03-27T17:58:31.580Z,12.79
2023-03-27T18:01:21.568Z,12.96
2023-03-27T18:03:51.939Z,13.45
2023-03-27T18:06:20.296Z,13.69
2023-03-27T18:08:47.656Z,13.82
2023-03-27T18:11:17.599Z,13.84
2023-03-27T18:13:45.307Z,13.81
2023-03-27T18:16:12.925Z,13.88
2023-03-27T18:18:40.633Z,13.30
2023-03-27T18:21:08.876Z,13.02
2023-03-27T18:23:38.112Z,12.81
2023-03-27T18:26:13.418Z,12.89
2023-03-27T18:28:40.711Z,13.31
2023-03-27T18:31:09.269Z,13.54
2023-03-27T18:33:36.634Z,13.12
2023-03-27T18:36:04.696Z,13.19
2023-03-27T18:38:32.848Z,13.23
2023-03-27T18:41:00.471Z,13.40
2023-03-27T18:43:27.970Z,13.77
2023-03-27T18:45:59.644Z,13.39
2023-03-27T18:48:27.668Z,13.25
2023-03-27T18:50:55.894Z,13.50
2023-03-27T18:53:23.594Z,13.54
2023-03-27T18:55:51.882Z,13.59
2023-03-27T18:58:19.813Z,13.75
2023-03-27T19:00:47.004Z,13.50
2023-03-27T19:03:20.348Z,12.87
2023-03-27T19:05:48.390Z,12.65
2023-03-27T19:08:15.843Z,12.97
2023-03-27T19:10:43.436Z,12.84
2023-03-27T19:13:36.818Z,13.16
2023-03-27T19:16:30.700Z,12.37
2023-03-27T19:19:15.874Z,12.51
2023-03-27T19:21:49.478Z,12.53
2023-03-27T19:24:26.553Z,13.08
2023-03-27T19:26:54.218Z,13.08
2023-03-27T19:29:21.446Z,13.23
2023-03-27T19:31:52.126Z,13.43
2023-03-27T19:34:21.893Z,13.44
2023-03-27T19:36:52.218Z,13.50
2023-03-27T19:39:22.350Z,13.61
2023-03-27T19:41:49.910Z,13.62
2023-03-27T19:44:20.104Z,13.73
2023-03-27T19:46:47.905Z,13.75
2023-03-27T19:49:16.286Z,13.70
2023-03-27T19:52:07.590Z,13.75
2023-03-27T19:54:34.875Z,13.75
2023-03-27T19:57:02.889Z,13.91
2023-03-27T19:59:31.303Z,13.78
2023-03-27T20:01:58.978Z,13.83
2023-03-27T20:04:26.664Z,13.80
2023-03-27T20:06:59.174Z,13.76
2023-03-27T20:09:26.472Z,13.84
2023-03-27T20:11:55.116Z,13.95
2023-03-27T20:14:22.366Z,13.96
2023-03-27T20:16:51.239Z,13.88
2023-03-27T20:19:19.802Z,13.93
2023-03-27T20:21:49.742Z,13.97
2023-03-27T20:24:18.582Z,13.78
2023-03-27T20:26:57.340Z,13.75
2023-03-27T20:29:26.082Z,13.79
2023-03-27T20:31:53.380Z,13.53
2023-03-27T20:34:22.889Z,12.81
2023-03-27T20:36:53.478Z,12.42
2023-03-27T20:39:44.805Z,12.96
2023-03-27T20:42:15.285Z,13.02
2023-03-27T20:44:43.842Z,13.11
2023-03-27T20:47:12.683Z,13.17
2023-03-27T20:49:44.236Z,13.24
2023-03-27T20:52:13.121Z,13.15
2023-03-27T20:54:41.024Z,12.92
2023-03-27T20:57:11.481Z,13.24
2023-03-27T20:59:39.169Z,13.22
2023-03-27T21:02:07.023Z,12.93
2023-03-27T21:04:34.383Z,12.89
2023-03-27T21:07:01.852Z,12.79
2023-03-27T21:09:29.320Z,12.85
2023-03-27T21:11:57.131Z,12.79
2023-03-27T21:14:24.514Z,12.62
2023-03-27T21:16:51.731Z,12.65
2023-03-27T21:19:21.508Z,12.87
2023-03-27T21:22:39.250Z,12.69
2023-03-27T21:25:14.522Z,12.73
2023-03-27T21:27:41.772Z,12.11
2023-03-27T21:30:09.973Z,12.22
2023-03-27T21:32:37.174Z,12.42
2023-03-27T21:35:04.724Z,12.50
2023-03-27T21:37:32.637Z,11.94
2023-03-27T21:40:00.165Z,11.85
2023-03-27T21:42:27.412Z,11.79
2023-03-27T21:44:57.136Z,11.80
2023-03-27T21:47:31.695Z,11.69
2023-03-27T21:50:09.052Z,11.49
2023-03-27T21:52:36.333Z,11.21
2023-03-27T21:55:12.823Z,11.65
2023-03-27T21:57:42.945Z,11.92
2023-03-27T22:00:11.800Z,12.05
2023-03-27T22:02:42.320Z,12.20
2023-03-27T22:05:11.001Z,12.30
2023-03-27T22:07:38.237Z,12.35
2023-03-27T22:10:06.718Z,12.34
2023-03-27T22:12:37.675Z,11.91
2023-03-27T22:15:08.023Z,11.76
2023-03-27T22:17:36.634Z,11.71
2023-03-27T22:20:05.157Z,11.39
2023-03-27T22:22:34.399Z,11.02
2023-03-27T22:25:01.666Z,10.95
2023-03-27T22:27:30.320Z,10.85
2023-03-27T22:29:57.501Z,10.52
2023-03-27T22:32:24.807Z,10.28
2023-03-27T22:34:52.107Z,10.31
2023-03-27T22:37:21.142Z,10.55
2023-03-27T22:39:48.404Z,10.59
2023-03-27T22:42:15.692Z,11.17
2023-03-27T22:44:42.925Z,11.37
2023-03-27T22:47:10.293Z,11.44
2023-03-27T22:49:37.658Z,11.46
2023-03-27T22:52:04.953Z,11.56
2023-03-27T22:54:32.294Z,11.72
2023-03-27T22:56:59.758Z,11.77
2023-03-27T22:59:27.067Z,11.90
2023-03-27T23:01:54.533Z,12.00
2023-03-27T23:04:23.333Z,12.09
2023-03-27T23:06:51.360Z,12.14
2023-03-27T23:09:18.636Z,12.14
2023-03-27T23:11:47.395Z,12.13
2023-03-27T23:14:14.686Z,12.08
2023-03-27T23:16:42.012Z,12.14
2023-03-27T23:19:09.278Z,12.14
2023-03-27T23:21:36.647Z,12.16
2023-03-27T23:24:03.929Z,12.20
2023-03-27T23:26:31.177Z,12.23
2023-03-27T23:28:58.601Z,12.26
2023-03-27T23:31:26.011Z,12.27
2023-03-27T23:33:53.290Z,12.27
2023-03-27T23:36:21.977Z,12.26
2023-03-27T23:38:49.494Z,12.19
2023-03-27T23:41:17.605Z,12.16
2023-03-27T23:43:45.488Z,12.16
2023-03-27T23:46:13.237Z,12.16
2023-03-27T23:48:41.625Z,12.18
2023-03-27T23:51:09.408Z,12.22
2023-03-27T23:53:36.973Z,12.32
2023-03-27T23:56:04.622Z,12.28
2023-03-27T23:58:34.937Z,12.34
